Map

Track Data

SID SEASON NUMBER BASIN SUBBASIN NAME ISO_TIME NATURE LAT LON WMO_WIND WMO_PRES WMO_AGENCY TRACK_TYPE DIST2LAND LANDFALL IFLAG USA_AGENCY USA_ATCF_ID USA_LAT USA_LON USA_RECORD USA_STATUS USA_WIND USA_PRES USA_SSHS USA_R34_NE USA_R34_SE USA_R34_SW USA_R34_NW USA_R50_NE USA_R50_SE USA_R50_SW USA_R50_NW USA_R64_NE USA_R64_SE USA_R64_SW USA_R64_NW USA_POCI USA_ROCI USA_RMW USA_EYE TOKYO_LAT TOKYO_LON TOKYO_GRADE TOKYO_WIND TOKYO_PRES TOKYO_R50_DIR TOKYO_R50_LONG TOKYO_R50_SHORT TOKYO_R30_DIR TOKYO_R30_LONG TOKYO_R30_SHORT TOKYO_LAND CMA_LAT CMA_LON CMA_CAT CMA_WIND CMA_PRES HKO_LAT HKO_LON HKO_CAT HKO_WIND HKO_PRES NEWDELHI_LAT NEWDELHI_LON NEWDELHI_GRADE NEWDELHI_WIND NEWDELHI_PRES NEWDELHI_CI NEWDELHI_DP NEWDELHI_POCI REUNION_LAT REUNION_LON REUNION_TYPE REUNION_WIND REUNION_PRES REUNION_TNUM REUNION_CI REUNION_RMW REUNION_R34_NE REUNION_R34_SE REUNION_R34_SW REUNION_R34_NW REUNION_R50_NE REUNION_R50_SE REUNION_R50_SW REUNION_R50_NW REUNION_R64_NE REUNION_R64_SE REUNION_R64_SW REUNION_R64_NW BOM_LAT BOM_LON BOM_TYPE BOM_WIND BOM_PRES BOM_TNUM BOM_CI BOM_RMW BOM_R34_NE BOM_R34_SE BOM_R34_SW BOM_R34_NW BOM_R50_NE BOM_R50_SE BOM_R50_SW BOM_R50_NW BOM_R64_NE BOM_R64_SE BOM_R64_SW BOM_R64_NW BOM_ROCI BOM_POCI BOM_EYE BOM_POS_METHOD BOM_PRES_METHOD NADI_LAT NADI_LON NADI_CAT NADI_WIND NADI_PRES WELLINGTON_LAT WELLINGTON_LON WELLINGTON_WIND WELLINGTON_PRES DS824_LAT DS824_LON DS824_STAGE DS824_WIND DS824_PRES TD9636_LAT TD9636_LON TD9636_STAGE TD9636_WIND TD9636_PRES TD9635_LAT TD9635_LON TD9635_WIND TD9635_PRES TD9635_ROCI NEUMANN_LAT NEUMANN_LON NEUMANN_CLASS NEUMANN_WIND NEUMANN_PRES MLC_LAT MLC_LON MLC_CLASS MLC_WIND MLC_PRES USA_GUST BOM_GUST BOM_GUST_PER REUNION_GUST REUNION_GUST_PER USA_SEAHGT USA_SEARAD_NE USA_SEARAD_SE USA_SEARAD_SW USA_SEARAD_NW STORM_SPEED STORM_DIR
1959054S08196 1959 21 SP MM NOT_NAMED 1959-02-22 12:00:00 TS -7.80000 -163.900 main 1122 1084 O________OO___ jtwc_sh SH221959 -7.80000 -163.900 -1 -7.80000 196.100 TC 65 -7.80000 -163.900 4 9 215
1959054S08196 1959 21 SP MM NOT_NAMED 1959-02-22 15:00:00 TS -8.15641 -164.150 main 1077 1031 P________PP___ SH221959 -8.17751 -164.137 -1 -8.17751 -164.137 TC 65 -8.11420 -164.175 4 8 217
1959054S08196 1959 21 SP MM NOT_NAMED 1959-02-22 18:00:00 TS -8.47089 -164.417 main 1031 991 O________OP___ jtwc_sh SH221959 -8.50000 -164.400 -1 -8.50000 195.600 TC 65 -8.41266 -164.450 4 8 225
1959054S08196 1959 21 SP MM NOT_NAMED 1959-02-22 21:00:00 TS -8.71327 -164.708 main 991 951 P________PP___ SH221959 -8.73001 -164.700 -1 -8.73001 -164.700 TC 65 -8.67978 -164.725 4 7 233
1959054S08196 1959 21 SP MM NOT_NAMED 1959-02-23 00:00:00 TS -8.90000 -165.000 main 951 920 O________OO___ jtwc_sh SH221959 -8.90000 -165.000 -1 -8.90000 195.000 TC 65 -8.90000 -165.000 4 6 237
1959054S08196 1959 21 SP MM NOT_NAMED 1959-02-23 03:00:00 TS -9.06463 -165.258 main 911 887 P________PP___ SH221959 -9.06495 -165.250 -1 -9.06495 -165.250 TC 65 -9.06399 -165.275 4 6 240
1959054S08196 1959 21 SP MM NOT_NAMED 1959-02-23 06:00:00 TS -9.19580 -165.517 main 887 854 O________OP___ jtwc_sh SH221959 -9.20000 -165.500 -1 -9.20000 194.500 TC 65 -9.18741 -165.550 4 6 247
1959054S08196 1959 21 SP MM NOT_NAMED 1959-02-23 09:00:00 TS -9.29738 -165.808 main 854 820 P________PP___ SH221959 -9.30001 -165.800 -1 -9.30001 -165.800 TC 65 -9.29212 -165.825 4 6 250
1959054S08196 1959 21 SP MM NOT_NAMED 1959-02-23 12:00:00 TS -9.40000 -166.100 main 820 796 O________OO___ jtwc_sh SH221959 -9.40000 -166.100 -1 -9.40000 193.900 TC 65 -9.40000 -166.100 4 6 245
1959054S08196 1959 21 SP MM NOT_NAMED 1959-02-23 15:00:00 TS -9.54523 -166.354 main 787 756 P________PP___ SH221959 -9.54245 -166.350 -1 -9.54245 -166.350 TC 65 -9.55080 -166.363 4 6 239
1959054S08196 1959 21 SP MM NOT_NAMED 1959-02-23 18:00:00 TS -9.70243 -166.609 main 756 717 O________OP___ jtwc_sh SH221959 -9.70000 -166.600 -1 -9.70000 193.400 TC 65 -9.70729 -166.628 4 6 239
1959054S08196 1959 21 SP MM NOT_NAMED 1959-02-23 21:00:00 TS -9.85836 -166.891 main 717 684 P________PP___ SH221959 -9.85747 -166.885 -1 -9.85747 -166.885 TC 65 -9.86015 -166.903 4 7 243
1959054S08196 1959 21 SP MM NOT_NAMED 1959-02-24 00:00:00 TS -10.0000 -167.200 main 684 651 O________OO___ jtwc_sh SH221959 -10.0000 -167.200 -1 -10.0000 192.800 TC 65 -10.0000 -167.200 4 7 249
1959054S08196 1959 21 SP MM NOT_NAMED 1959-02-24 03:00:00 TS -10.1058 -167.545 main 651 610 P________PP___ SH221959 -10.1075 -167.543 -1 -10.1075 -167.543 TC 65 -10.1023 -167.549 4 7 254
1959054S08196 1959 21 SP MM NOT_NAMED 1959-02-24 06:00:00 TS -10.1976 -167.905 main 610 578 O________OP___ jtwc_sh SH221959 -10.2000 -167.900 -1 -10.2000 192.100 TC 65 -10.1927 -167.915 4 7 255
1959054S08196 1959 21 SP MM NOT_NAMED 1959-02-24 09:00:00 TS -10.2956 -168.268 main 570 538 P________PP___ SH221959 -10.3000 -168.265 -1 -10.3000 -168.265 TC 65 -10.2867 -168.274 4 7 254
1959054S08196 1959 21 SP MM NOT_NAMED 1959-02-24 12:00:00 TS -10.4000 -168.600 main 538 507 O________OO___ jtwc_sh SH221959 -10.4000 -168.600 -1 -10.4000 191.400 TC 65 -10.4000 -168.600 4 6 253
1959054S08196 1959 21 SP MM NOT_NAMED 1959-02-24 15:00:00 TS -10.4797 -168.870 main 507 483 P________PP___ SH221959 -10.4775 -168.873 -1 -10.4775 -168.873 TC 65 -10.4842 -168.865 4 5 248
1959054S08196 1959 21 SP MM NOT_NAMED 1959-02-24 18:00:00 TS -10.6000 -169.099 main 483 452 O________OP___ jtwc_sh SH221959 -10.6000 -169.100 -1 -10.6000 190.900 TC 65 -10.5999 -169.096 4 5 235
1959054S08196 1959 21 SP MM NOT_NAMED 1959-02-24 21:00:00 TS -10.7852 -169.306 main 452 413 P________PP___ SH221959 -10.7825 -169.308 -1 -10.7825 -169.308 TC 65 -10.7905 -169.303 4 6 218
1959054S08196 1959 21 SP MM NOT_NAMED 1959-02-25 00:00:00 TS -11.1000 -169.500 main 413 359 O________OO___ jtwc_sh SH221959 -11.1000 -169.500 -1 -11.1000 190.500 TC 65 -11.1000 -169.500 4 9 207
1959054S08196 1959 21 SP MM NOT_NAMED 1959-02-25 03:00:00 TS -11.5887 -169.722 main 359 300 P________PP___ SH221959 -11.5900 -169.700 -1 -11.5900 -169.700 TC 65 -11.5861 -169.767 4 12 201
1959054S08196 1959 21 SP MM NOT_NAMED 1959-02-25 06:00:00 TS -12.1959 -169.939 main 300 238 O________OP___ jtwc_sh SH221959 -12.2000 -169.900 -1 -12.2000 190.100 TC 65 -12.1877 -170.018 4 13 199
1959054S08196 1959 21 SP MM NOT_NAMED 1959-02-25 09:00:00 TS -12.8485 -170.172 main 238 206 P________PP___ SH221959 -12.8500 -170.152 -1 -12.8500 -170.152 TC 65 -12.8454 -170.211 4 14 195
1959054S08196 1959 21 SP MM NOT_NAMED 1959-02-25 12:00:00 TS -13.5000 -170.300 main 206 205 O________OO___ jtwc_sh SH221959 -13.5000 -170.300 -1 -13.5000 189.700 TC 65 -13.5000 -170.300 4 12 182
1959054S08196 1959 21 SP MM NOT_NAMED 1959-02-25 15:00:00 TS -14.0729 -170.210 main 218 218 P________PP___ SH221959 -14.0650 -170.210 -1 -14.0650 -170.210 TC 65 -14.0888 -170.210 4 12 166
1959054S08196 1959 21 SP MM NOT_NAMED 1959-02-25 18:00:00 TS -14.6200 -170.007 main 253 253 O________OP___ jtwc_sh SH221959 -14.6000 -170.000 -1 -14.6000 190.000 TC 65 -14.6601 -170.020 4 12 160
1959054S08196 1959 21 SP MM NOT_NAMED 1959-02-25 21:00:00 TS -15.1772 -169.788 main 302 302 P________PP___ SH221959 -15.1650 -169.785 -1 -15.1650 -169.785 TC 65 -15.2014 -169.794 4 12 160
1959054S08196 1959 21 SP MM NOT_NAMED 1959-02-26 00:00:00 TS -15.7000 -169.600 main 351 351 O________OO___ jtwc_sh SH221959 -15.7000 -169.600 -1 -15.7000 190.400 TC 65 -15.7000 -169.600 4 10 165
1959054S08196 1959 21 SP MM NOT_NAMED 1959-02-26 03:00:00 TS -16.1771 -169.520 main 395 395 P________PP___ SH221959 -16.1800 -169.520 -1 -16.1800 -169.520 TC 65 -16.1714 -169.519 4 9 174
1959054S08196 1959 21 SP MM NOT_NAMED 1959-02-26 06:00:00 TS -16.5991 -169.494 main 426 426 O________OP___ jtwc_sh SH221959 -16.6000 -169.500 -1 -16.6000 190.500 TC 65 -16.5973 -169.482 4 8 177
1959054S08196 1959 21 SP MM NOT_NAMED 1959-02-26 09:00:00 TS -16.9832 -169.488 main 460 460 P________PP___ SH221959 -16.9875 -169.492 -1 -16.9875 -169.492 TC 65 -16.9746 -169.479 4 7 181
1959054S08196 1959 21 SP MM NOT_NAMED 1959-02-26 12:00:00 TS -17.3000 -169.500 main 487 487 O________OO___ jtwc_sh SH221959 -17.3000 -169.500 -1 -17.3000 190.500 TC 65 -17.3000 -169.500 4 5 182
1959054S08196 1959 21 SP MM NOT_NAMED 1959-02-26 15:00:00 TS -17.5094 -169.492 main 505 505 P________PP___ SH221959 -17.5150 -169.485 -1 -17.5150 -169.485 TC 65 -17.4981 -169.505 4 4 184
1959054S08196 1959 21 SP MM NOT_NAMED 1959-02-26 18:00:00 TS -17.6866 -169.511 main 523 523 O________OP___ jtwc_sh SH221959 -17.7000 -169.500 -1 -17.7000 190.500 TC 65 -17.6599 -169.534 4 4 192
1959054S08196 1959 21 SP MM NOT_NAMED 1959-02-26 21:00:00 TS -17.8723 -169.579 main 536 536 P________PP___ SH221959 -17.8750 -169.570 -1 -17.8750 -169.570 TC 65 -17.8668 -169.596 4 5 199
1959054S08196 1959 21 SP MM NOT_NAMED 1959-02-27 00:00:00 TS -18.2000 -169.700 main 560 560 O________OO___ jtwc_sh SH221959 -18.2000 -169.700 -1 -18.2000 190.300 TC 65 -18.2000 -169.700 4 10 197
1959054S08196 1959 21 SP MM NOT_NAMED 1959-02-27 03:00:00 TS -18.8177 -169.877 main 611 611 P________PP___ SH221959 -18.8326 -169.885 -1 -18.8326 -169.885 TC 65 -18.7880 -169.860 4 14 195
1959054S08196 1959 21 SP MM NOT_NAMED 1959-02-27 06:00:00 TS -19.5676 -170.087 main 686 686 O________OP___ jtwc_sh SH221959 -19.6000 -170.100 -1 -19.6000 189.900 TC 65 -19.5028 -170.061 4 15 195
1959054S08196 1959 21 SP MM NOT_NAMED 1959-02-27 09:00:00 TS -20.3037 -170.294 main 754 754 P________PP___ SH221959 -20.3225 -170.300 -1 -20.3225 -170.300 TC 65 -20.2662 -170.282 4 15 195
1959054S08196 1959 21 SP MM NOT_NAMED 1959-02-27 12:00:00 TS -21.0000 -170.500 main 825 825 O________OO___ jtwc_sh SH221959 -21.0000 -170.500 -1 -21.0000 189.500 TC 65 -21.0000 -170.500 4 13 196
1959054S08196 1959 21 SP MM NOT_NAMED 1959-02-27 15:00:00 TS -21.5766 -170.697 main 887 887 P________PP___ SH221959 -21.5725 -170.708 -1 -21.5725 -170.708 TC 65 -21.5848 -170.675 4 12 198
1959054S08196 1959 21 SP MM NOT_NAMED 1959-02-27 18:00:00 TS -22.1099 -170.881 main 938 938 O________OP___ jtwc_sh SH221959 -22.1000 -170.900 -1 -22.1000 189.100 TC 65 -22.1297 -170.844 4 11 196
1959054S08196 1959 21 SP MM NOT_NAMED 1959-02-27 21:00:00 TS -22.6482 -171.039 main 992 992 P________PP___ SH221959 -22.6424 -171.050 -1 -22.6424 -171.050 TC 65 -22.6598 -171.016 4 11 195
1959054S08196 1959 21 SP MM NOT_NAMED 1959-02-28 00:00:00 TS -23.2000 -171.200 main 1056 1056 O________OO___ jtwc_sh SH221959 -23.2000 -171.200 -1 -23.2000 188.800 TC 65 -23.2000 -171.200 4 12 196
1959054S08196 1959 21 SP MM NOT_NAMED 1959-02-28 03:00:00 TS -23.7903 -171.407 main 1121 1121 P________PP___ SH221959 -23.7925 -171.385 -1 -23.7925 -171.385 TC 65 -23.7859 -171.450 4 13 198
1959054S08196 1959 21 SP MM NOT_NAMED 1959-02-28 06:00:00 TS -24.3951 -171.636 main 1187 1187 O________OP___ jtwc_sh SH221959 -24.4000 -171.600 -1 -24.4000 188.400 TC 65 -24.3854 -171.708 4 13 199
1959054S08196 1959 21 SP MM NOT_NAMED 1959-02-28 09:00:00 TS -24.9974 -171.869 main 1240 1240 P________PP___ SH221959 -25.0000 -171.835 -1 -25.0000 -171.835 TC 65 -24.9922 -171.937 4 13 199
1959054S08196 1959 21 SP MM NOT_NAMED 1959-02-28 12:00:00 TS -25.6000 -172.100 main 1265 1265 O________OO___ jtwc_sh SH221959 -25.6000 -172.100 -1 -25.6000 187.900 TC 65 -25.6000 -172.100 4 13 203
1959054S08196 1959 21 SP MM NOT_NAMED 1959-02-28 15:00:00 TS -26.2082 -172.439 main 1287 1280 P________PP___ SH221959 -26.2001 -172.489 -1 -26.2001 -172.489 TC 65 -26.2244 -172.341 4 13 201
1959054S08196 1959 21 SP MM NOT_NAMED 1959-02-28 18:00:00 TS -26.8150 -172.628 main 1319 1319 O________OP___ jtwc_sh SH221959 -26.8000 -172.700 -1 -26.8000 187.300 TC 65 -26.8450 -172.484 4 12 183
1959054S08196 1959 21 SP MM NOT_NAMED 1959-02-28 21:00:00 TS -27.4233 -172.520 main 1375 1375 P________PP___ SH221959 -27.4133 -172.574 -1 -27.4133 -172.574 TC 65 -27.4433 -172.411 4 13 155
1959054S08196 1959 21 SP MM NOT_NAMED 1959-03-01 00:00:00 TS -28.0000 -172.000 main 1390 1384 O________OO___ jtwc_sh SH221959 -28.0000 -172.000 -1 -28.0000 188.000 TC 65 -28.0000 -172.000 4 17 130
1959054S08196 1959 21 SP MM NOT_NAMED 1959-03-01 03:00:00 TS -28.5356 -171.000 main 1407 1405 P________PP___ SH221959 -28.5385 -170.943 -1 -28.5385 -170.943 TC 65 -28.5297 -171.113 4 23 116
1959054S08196 1959 21 SP MM NOT_NAMED 1959-03-01 06:00:00 TS -29.0002 -169.695 main 1452 1452 O________OP___ jtwc_sh SH221959 -29.0000 -169.600 -1 -29.0000 190.400 TC 65 -29.0007 -169.884 4 25 110
1959054S08196 1959 21 SP MM NOT_NAMED 1959-03-01 09:00:00 TS -29.3946 -168.359 main 1514 1514 P________PP___ SH221959 -29.3944 -168.307 -1 -29.3944 -168.307 TC 65 -29.3951 -168.462 4 24 107
1959054S08196 1959 21 SP MM NOT_NAMED 1959-03-01 12:00:00 TS -29.7000 -167.000 main 1597 1597 O________OO___ jtwc_sh SH221959 -29.7000 -167.000 -1 -29.7000 193.000 TC 65 -29.7000 -167.000 4 24 103
1959054S08196 1959 21 SP MM NOT_NAMED 1959-03-01 15:00:00 TS -29.9333 -165.707 main 1685 1685 P________PP___ SH221959 -29.9434 -165.749 -1 -29.9434 -165.749 TC 65 -29.9131 -165.623 4 22 100
1959054S08196 1959 21 SP MM NOT_NAMED 1959-03-01 18:00:00 TS -30.0843 -164.444 main 1776 1776 O________OP___ jtwc_sh SH221959 -30.1000 -164.500 -1 -30.1000 195.500 TC 65 -30.0530 -164.333 4 22 96
1959054S08196 1959 21 SP MM NOT_NAMED 1959-03-01 21:00:00 TS -30.1642 -163.176 main 1867 1867 P________PP___ SH221959 -30.1754 -163.213 -1 -30.1754 -163.213 TC 65 -30.1418 -163.102 4 22 93
1959054S08196 1959 21 SP MM NOT_NAMED 1959-03-02 00:00:00 TS -30.2000 -161.900 main 1974 O________OO___ jtwc_sh SH221959 -30.2000 -161.900 -1 -30.2000 198.100 TC 65 -30.2000 -161.900 4 22 92

Digital Typhoon Data and Search

About IBTrACS Database

This database is a web-friendly format of International Best Track Archive for Climate Stewardship (IBTrACS), a global best track data archive curated by NOAA dating back to 1842.

Updated: 2021-11-26